createdAt,value
2023-03-05T00:01:35.013Z,27.15
2023-03-05T00:04:05.704Z,23.85
2023-03-05T00:06:34.282Z,25.38
2023-03-05T00:09:03.098Z,28.65
2023-03-05T00:11:31.627Z,29.85
2023-03-05T00:14:01.275Z,28.05
2023-03-05T00:16:29.495Z,22.08
2023-03-05T00:18:59.731Z,34.63
2023-03-05T00:21:37.518Z,30.85
2023-03-05T00:24:12.435Z,34.72
2023-03-05T00:26:40.875Z,26.13
2023-03-05T00:29:12.659Z,27.48
2023-03-05T00:31:40.004Z,24.95
2023-03-05T00:34:13.216Z,29.88
2023-03-05T00:36:44.653Z,26.67
2023-03-05T00:39:13.377Z,27.20
2023-03-05T00:41:41.192Z,32.85
2023-03-05T00:44:08.466Z,28.23
2023-03-05T00:46:36.347Z,36.75
2023-03-05T00:49:04.021Z,30.40
2023-03-05T00:51:31.566Z,34.15
2023-03-05T00:53:58.734Z,29.98
2023-03-05T00:56:26.363Z,28.50
2023-03-05T00:58:53.383Z,24.42
2023-03-05T01:01:20.490Z,33.13
2023-03-05T01:03:47.651Z,33.80
2023-03-05T01:06:18.946Z,27.30
2023-03-05T01:08:46.167Z,34.67
2023-03-05T01:11:13.655Z,29.88
2023-03-05T01:13:41.045Z,28.58
2023-03-05T01:16:09.187Z,31.92
2023-03-05T01:18:38.766Z,35.22
2023-03-05T01:21:05.928Z,34.42
2023-03-05T01:23:34.383Z,28.67
2023-03-05T01:26:01.539Z,31.58
2023-03-05T01:28:28.943Z,36.08
2023-03-05T01:30:56.470Z,34.47
2023-03-05T01:33:23.831Z,29.05
2023-03-05T01:35:51.263Z,31.88
2023-03-05T01:38:18.597Z,32.17
2023-03-05T01:40:45.959Z,33.00
2023-03-05T01:43:12.844Z,36.25
2023-03-05T01:46:34.782Z,32.13
2023-03-05T01:49:22.484Z,38.60
2023-03-05T01:52:17.741Z,34.60
2023-03-05T01:55:13.856Z,29.63
2023-03-05T01:57:55.673Z,34.40
2023-03-05T02:00:39.435Z,36.75
2023-03-05T02:03:10.591Z,38.95
2023-03-05T02:05:44.259Z,37.60
2023-03-05T02:08:18.541Z,40.75
2023-03-05T02:10:52.909Z,34.90
2023-03-05T02:13:29.310Z,37.03
2023-03-05T02:16:01.036Z,39.78
2023-03-05T02:18:28.717Z,34.17
2023-03-05T02:21:08.917Z,30.13
2023-03-05T02:23:39.006Z,36.70
2023-03-05T02:26:10.532Z,38.47
2023-03-05T02:28:44.290Z,35.40
2023-03-05T02:31:21.223Z,30.70
2023-03-05T02:33:49.803Z,32.97
2023-03-05T02:36:18.318Z,45.95
2023-03-05T02:38:47.391Z,39.08
2023-03-05T02:41:15.702Z,30.23
2023-03-05T02:43:42.854Z,37.50
2023-03-05T02:46:09.960Z,31.05
2023-03-05T02:48:36.899Z,35.97
2023-03-05T02:51:06.783Z,40.90
2023-03-05T02:53:33.723Z,37.45
2023-03-05T02:56:00.753Z,33.47
2023-03-05T02:58:27.975Z,36.70
2023-03-05T03:00:54.933Z,35.65
2023-03-05T03:03:21.880Z,39.28
2023-03-05T03:05:48.888Z,37.97
2023-03-05T03:08:16.688Z,41.42
2023-03-05T03:10:43.585Z,40.60
2023-03-05T03:13:10.468Z,38.60
2023-03-05T03:15:37.913Z,42.08
2023-03-05T03:18:04.929Z,32.08
2023-03-05T03:20:32.613Z,39.30
2023-03-05T03:22:59.553Z,36.30
2023-03-05T03:25:26.668Z,41.90
2023-03-05T03:27:53.554Z,38.83
2023-03-05T03:30:20.707Z,37.35
2023-03-05T03:32:47.700Z,39.70
2023-03-05T03:35:14.742Z,32.78
2023-03-05T03:37:41.671Z,39.72
2023-03-05T03:40:11.415Z,42.00
2023-03-05T03:42:38.300Z,36.25
2023-03-05T03:45:06.061Z,43.05
2023-03-05T03:47:32.933Z,38.42
2023-03-05T03:49:59.806Z,31.10
2023-03-05T03:52:27.397Z,39.38
2023-03-05T03:54:57.593Z,40.70
2023-03-05T03:57:24.511Z,28.00
2023-03-05T03:59:51.357Z,33.60
2023-03-05T04:02:18.727Z,33.10
2023-03-05T04:04:45.620Z,42.88
2023-03-05T04:07:13.150Z,35.05
2023-03-05T04:09:40.081Z,35.55
2023-03-05T04:12:07.733Z,38.00
2023-03-05T04:14:34.748Z,32.75
2023-03-05T04:17:01.631Z,35.55
2023-03-05T04:19:30.526Z,31.33
2023-03-05T04:21:59.430Z,39.38
2023-03-05T04:24:26.647Z,42.53
2023-03-05T04:26:53.719Z,40.70
2023-03-05T04:29:20.703Z,36.33
2023-03-05T04:31:47.606Z,42.72
2023-03-05T04:34:14.499Z,33.92
2023-03-05T04:36:41.397Z,32.53
2023-03-05T04:39:08.372Z,37.90
2023-03-05T04:41:35.250Z,34.95
2023-03-05T04:44:02.141Z,38.05
2023-03-05T04:46:29.088Z,35.17
2023-03-05T04:48:58.033Z,33.92
2023-03-05T04:51:25.419Z,32.90
2023-03-05T04:53:52.339Z,34.05
2023-03-05T04:56:19.212Z,28.95
2023-03-05T04:58:46.257Z,33.10
2023-03-05T05:01:13.487Z,39.25
2023-03-05T05:03:40.557Z,33.47
2023-03-05T05:06:08.120Z,39.47
2023-03-05T05:08:35.122Z,37.45
2023-03-05T05:11:06.990Z,39.40
2023-03-05T05:13:35.380Z,35.55
2023-03-05T05:16:06.610Z,46.60
2023-03-05T05:18:33.684Z,38.30
2023-03-05T05:21:00.796Z,26.25
2023-03-05T05:23:27.796Z,32.33
2023-03-05T05:26:01.226Z,30.88
2023-03-05T05:28:29.546Z,39.65
2023-03-05T05:30:56.976Z,31.92
2023-03-05T05:33:24.799Z,38.13
2023-03-05T05:35:51.799Z,34.17
2023-03-05T05:38:19.444Z,36.30
2023-03-05T05:40:46.359Z,35.47
2023-03-05T05:43:13.262Z,33.03
2023-03-05T05:45:40.489Z,37.75
2023-03-05T05:48:07.732Z,41.78
2023-03-05T05:50:34.595Z,35.08
2023-03-05T05:53:01.436Z,38.75
2023-03-05T05:55:28.337Z,30.20
2023-03-05T05:57:55.277Z,38.10
2023-03-05T06:00:23.207Z,29.27
2023-03-05T06:02:50.088Z,36.92
2023-03-05T06:05:17.095Z,38.15
2023-03-05T06:07:44.800Z,30.05
2023-03-05T06:10:12.339Z,39.85
2023-03-05T06:12:39.251Z,40.78
2023-03-05T06:15:07.447Z,39.65
2023-03-05T06:17:34.591Z,28.95
2023-03-05T06:20:01.686Z,35.25
2023-03-05T06:22:28.590Z,35.03
2023-03-05T06:24:55.803Z,33.38
2023-03-05T06:27:22.762Z,37.25
2023-03-05T06:29:54.210Z,38.10
2023-03-05T06:32:21.494Z,36.58
2023-03-05T06:34:49.575Z,35.30
2023-03-05T06:37:16.688Z,36.75
2023-03-05T06:39:43.745Z,46.88
2023-03-05T06:42:10.605Z,38.05
2023-03-05T06:44:41.802Z,39.25
2023-03-05T06:47:10.418Z,39.15
2023-03-05T06:49:38.952Z,60.15
2023-03-05T06:52:09.963Z,38.53
2023-03-05T06:54:36.848Z,37.63
2023-03-05T06:57:03.914Z,46.22
2023-03-05T06:59:30.765Z,46.40
2023-03-05T07:01:57.668Z,45.33
2023-03-05T07:04:24.727Z,45.40
2023-03-05T07:06:51.708Z,39.67
2023-03-05T07:09:18.590Z,38.72
2023-03-05T07:11:45.536Z,41.35
2023-03-05T07:14:12.716Z,42.75
2023-03-05T07:16:39.691Z,39.22
2023-03-05T07:19:07.812Z,39.88
2023-03-05T07:21:38.250Z,40.15
2023-03-05T07:24:08.070Z,41.10
2023-03-05T07:26:35.041Z,36.70
2023-03-05T07:29:03.544Z,43.85
2023-03-05T07:31:33.364Z,30.90
2023-03-05T07:34:03.658Z,37.20
2023-03-05T07:36:31.283Z,41.88
2023-03-05T07:38:58.243Z,36.90
2023-03-05T07:41:25.130Z,38.95
2023-03-05T07:43:55.119Z,37.00
2023-03-05T07:46:29.876Z,36.10
2023-03-05T07:48:57.473Z,36.08
2023-03-05T07:51:27.362Z,39.10
2023-03-05T07:53:58.645Z,43.65
2023-03-05T07:56:35.583Z,40.75
2023-03-05T07:59:11.561Z,40.03
2023-03-05T08:01:38.961Z,40.28
2023-03-05T08:04:08.567Z,34.05
2023-03-05T08:06:35.629Z,41.22
2023-03-05T08:09:02.498Z,39.30
2023-03-05T08:11:29.477Z,40.65
2023-03-05T08:13:59.161Z,45.88
2023-03-05T08:16:26.456Z,33.85
2023-03-05T08:18:58.485Z,34.45
2023-03-05T08:21:33.991Z,34.15
2023-03-05T08:24:06.910Z,54.00
2023-03-05T08:26:38.409Z,47.65
2023-03-05T08:29:08.550Z,35.08
2023-03-05T08:31:37.075Z,42.45
2023-03-05T08:34:06.117Z,36.13
2023-03-05T08:36:33.454Z,34.25
2023-03-05T08:39:00.425Z,44.60
2023-03-05T08:41:27.703Z,43.92
2023-03-05T08:43:54.878Z,34.88
2023-03-05T08:46:21.919Z,35.30
2023-03-05T08:48:48.856Z,32.65
2023-03-05T08:51:22.067Z,37.10
2023-03-05T08:53:49.010Z,33.40
2023-03-05T08:56:15.984Z,35.00
2023-03-05T08:58:44.038Z,34.27
2023-03-05T09:03:34.537Z,25.13
2023-03-05T09:06:05.481Z,27.77
2023-03-05T09:08:32.950Z,17.92
2023-03-05T09:11:04.928Z,17.13
2023-03-05T09:13:33.255Z,15.50
2023-03-05T09:16:06.385Z,17.60
2023-03-05T09:18:36.461Z,16.40
2023-03-05T09:21:15.035Z,17.17
2023-03-05T09:23:43.972Z,19.35
2023-03-05T09:26:15.484Z,22.95
2023-03-05T09:28:42.682Z,17.40
2023-03-05T09:31:11.138Z,17.77
2023-03-05T09:33:39.822Z,13.73
2023-03-05T09:36:27.188Z,13.85
2023-03-05T09:38:54.417Z,9.83
2023-03-05T09:41:39.375Z,11.32
2023-03-05T09:45:03.933Z,12.20
2023-03-05T09:48:16.659Z,14.20
2023-03-05T09:51:04.870Z,13.30
2023-03-05T09:54:12.134Z,12.18
2023-03-05T09:56:51.036Z,14.40
2023-03-05T09:59:51.657Z,10.60
2023-03-05T10:02:32.476Z,10.48
2023-03-05T10:05:30.898Z,8.80
2023-03-05T10:08:05.929Z,11.90
2023-03-05T10:10:50.329Z,20.77
2023-03-05T10:13:25.406Z,11.63
2023-03-05T10:16:52.348Z,11.57
2023-03-05T10:20:19.710Z,11.48
2023-03-05T10:23:49.463Z,13.48
2023-03-05T10:27:07.910Z,11.02
2023-03-05T10:30:02.029Z,10.52
2023-03-05T10:33:02.731Z,13.80
2023-03-05T10:35:58.741Z,13.60
2023-03-05T10:39:19.226Z,16.27
2023-03-05T10:42:37.496Z,16.60
2023-03-05T10:45:22.486Z,9.05
2023-03-05T10:48:25.054Z,11.82
2023-03-05T10:51:21.596Z,15.55
2023-03-05T10:53:59.772Z,13.75
2023-03-05T10:56:31.683Z,8.45
2023-03-05T10:58:58.545Z,9.25
2023-03-05T11:01:29.393Z,7.40
2023-03-05T11:04:26.400Z,10.15
2023-03-05T11:06:53.315Z,10.27
2023-03-05T11:09:29.432Z,13.25
2023-03-05T11:12:26.518Z,5.47
2023-03-05T11:15:14.378Z,7.63
2023-03-05T11:18:02.931Z,5.93
2023-03-05T11:20:36.575Z,6.00
2023-03-05T11:23:24.616Z,7.15
2023-03-05T11:26:04.562Z,13.35
2023-03-05T11:28:41.154Z,15.27
2023-03-05T11:31:17.296Z,7.32
2023-03-05T11:34:03.294Z,6.90
2023-03-05T11:36:39.756Z,9.10
2023-03-05T11:39:07.282Z,8.43
2023-03-05T11:41:53.502Z,5.85
2023-03-05T11:44:55.959Z,7.30
2023-03-05T11:47:50.317Z,6.35
2023-03-05T11:50:35.367Z,4.65
2023-03-05T11:53:31.535Z,5.40
2023-03-05T11:56:33.752Z,5.95
2023-03-05T11:59:30.947Z,7.68
2023-03-05T12:01:58.716Z,5.30
2023-03-05T12:04:26.540Z,9.32
2023-03-05T12:07:02.625Z,8.30
2023-03-05T12:09:43.121Z,6.70
2023-03-05T12:12:36.034Z,5.50
2023-03-05T12:15:32.090Z,6.70
2023-03-05T12:18:57.886Z,3.65
2023-03-05T12:21:41.197Z,9.57
2023-03-05T12:24:28.415Z,5.03
2023-03-05T12:27:04.662Z,6.95
2023-03-05T12:29:46.570Z,5.85
2023-03-05T12:32:31.693Z,6.00
2023-03-05T12:35:22.717Z,4.03
2023-03-05T12:37:49.994Z,2.88
2023-03-05T12:40:34.566Z,5.83
2023-03-05T12:43:30.206Z,7.07
2023-03-05T12:46:26.124Z,4.20
2023-03-05T12:48:53.076Z,4.82
2023-03-05T12:51:34.862Z,3.45
2023-03-05T12:54:35.728Z,3.10
2023-03-05T12:57:16.665Z,4.88
2023-03-05T13:00:03.030Z,3.25
2023-03-05T13:02:58.440Z,4.53
2023-03-05T13:05:36.891Z,13.85
2023-03-05T13:08:26.157Z,3.05
2023-03-05T13:11:18.675Z,2.80
2023-03-05T13:13:48.832Z,5.72
2023-03-05T13:16:26.211Z,11.43
2023-03-05T13:18:59.279Z,3.97
2023-03-05T13:21:30.898Z,8.45
2023-03-05T13:24:03.832Z,5.05
2023-03-05T13:26:40.313Z,8.02
2023-03-05T13:29:22.988Z,6.00
2023-03-05T13:32:17.829Z,4.80
2023-03-05T13:34:48.109Z,3.92
2023-03-05T13:37:25.019Z,5.53
2023-03-05T13:40:24.443Z,10.40
2023-03-05T13:42:53.365Z,4.57
2023-03-05T13:45:31.743Z,7.43
2023-03-05T13:48:03.366Z,3.75
2023-03-05T13:50:40.408Z,5.55
2023-03-05T13:53:30.007Z,2.65
2023-03-05T13:56:08.697Z,40.30
2023-03-05T13:58:56.912Z,20.13
2023-03-05T14:01:30.690Z,8.88
2023-03-05T14:04:27.366Z,21.10
2023-03-05T14:07:03.606Z,12.18
2023-03-05T14:09:49.358Z,6.20
2023-03-05T14:12:43.411Z,3.25
2023-03-05T14:15:31.011Z,7.80
2023-03-05T14:18:19.109Z,7.47
2023-03-05T14:21:18.157Z,3.42
2023-03-05T14:23:52.849Z,3.13
2023-03-05T14:26:39.110Z,2.28
2023-03-05T14:29:20.907Z,3.58
2023-03-05T14:31:55.879Z,3.22
2023-03-05T14:34:39.645Z,4.10
2023-03-05T14:37:25.146Z,6.25
2023-03-05T14:39:59.577Z,4.40
2023-03-05T14:42:57.156Z,6.15
2023-03-05T14:45:32.405Z,5.03
2023-03-05T14:48:02.738Z,6.45
2023-03-05T14:50:43.489Z,5.10
2023-03-05T14:53:19.308Z,11.90
2023-03-05T14:55:51.262Z,9.23
2023-03-05T14:58:25.061Z,9.27
2023-03-05T15:00:56.723Z,11.27
2023-03-05T15:03:28.310Z,4.25
2023-03-05T15:06:00.151Z,5.85
2023-03-05T15:08:32.177Z,5.85
2023-03-05T15:11:00.557Z,6.55
2023-03-05T15:13:27.637Z,4.60
2023-03-05T15:15:55.132Z,4.10
2023-03-05T15:18:23.670Z,4.30
2023-03-05T15:20:54.049Z,5.43
2023-03-05T15:23:21.335Z,5.72
2023-03-05T15:25:48.853Z,8.15
2023-03-05T15:28:16.281Z,7.63
2023-03-05T15:30:46.994Z,5.95
2023-03-05T15:33:17.851Z,6.18
2023-03-05T15:35:45.860Z,5.20
2023-03-05T15:38:13.458Z,9.00
2023-03-05T15:40:40.380Z,7.35
2023-03-05T15:43:07.224Z,9.55
2023-03-05T15:45:34.175Z,6.18
2023-03-05T15:48:01.394Z,5.35
2023-03-05T15:50:28.601Z,6.38
2023-03-05T15:52:55.569Z,5.60
2023-03-05T15:55:22.599Z,6.90
2023-03-05T15:57:52.562Z,7.32
2023-03-05T16:00:30.303Z,9.73
2023-03-05T16:02:57.186Z,7.85
2023-03-05T16:05:24.705Z,8.77
2023-03-05T16:07:54.653Z,9.40
2023-03-05T16:10:28.129Z,14.35
2023-03-05T16:13:06.342Z,8.75
2023-03-05T16:15:35.384Z,11.82
2023-03-05T16:18:11.799Z,9.02
2023-03-05T16:20:39.634Z,7.22
2023-03-05T16:23:06.893Z,7.95
2023-03-05T16:25:34.124Z,9.27
2023-03-05T16:28:01.139Z,12.70
2023-03-05T16:30:28.088Z,8.38
2023-03-05T16:32:55.016Z,10.40
2023-03-05T16:35:22.299Z,7.55
2023-03-05T16:37:49.683Z,7.45
2023-03-05T16:40:17.772Z,8.75
2023-03-05T16:42:44.715Z,14.35
2023-03-05T16:45:13.137Z,9.25
2023-03-05T16:47:40.837Z,12.73
2023-03-05T16:50:11.809Z,8.20
2023-03-05T16:52:38.997Z,49.67
2023-03-05T16:55:06.553Z,47.67
2023-03-05T16:57:33.525Z,9.73
2023-03-05T17:00:02.392Z,14.07
2023-03-05T17:02:29.444Z,8.10
2023-03-05T17:04:57.771Z,10.32
2023-03-05T17:07:26.370Z,8.90
2023-03-05T17:09:54.246Z,10.63
2023-03-05T17:12:22.481Z,8.88
2023-03-05T17:14:49.438Z,10.68
2023-03-05T17:17:16.581Z,11.35
2023-03-05T17:19:43.526Z,8.82
2023-03-05T17:22:12.607Z,10.50
2023-03-05T17:24:42.680Z,7.10
2023-03-05T17:27:10.300Z,7.45
2023-03-05T17:29:37.264Z,9.07
2023-03-05T17:32:04.947Z,5.63
2023-03-05T17:34:36.599Z,6.32
2023-03-05T17:37:05.929Z,10.63
2023-03-05T17:39:33.740Z,9.43
2023-03-05T17:42:01.262Z,13.10
2023-03-05T17:44:28.160Z,12.90
2023-03-05T17:46:55.266Z,11.93
2023-03-05T17:49:22.458Z,9.20
2023-03-05T17:51:49.395Z,13.82
2023-03-05T17:54:16.291Z,9.75
2023-03-05T17:56:43.203Z,7.93
2023-03-05T17:59:10.084Z,6.85
2023-03-05T18:01:37.032Z,6.15
2023-03-05T18:04:04.085Z,9.77
2023-03-05T18:06:32.110Z,7.25
2023-03-05T18:08:59.011Z,6.45
2023-03-05T18:11:26.128Z,8.35
2023-03-05T18:13:52.965Z,6.97
2023-03-05T18:16:20.220Z,9.98
2023-03-05T18:18:47.125Z,9.23
2023-03-05T18:21:21.572Z,8.77
2023-03-05T18:23:50.890Z,7.97
2023-03-05T18:26:18.158Z,7.88
2023-03-05T18:28:45.149Z,7.55
2023-03-05T18:31:12.271Z,9.68
2023-03-05T18:33:39.332Z,8.77
2023-03-05T18:36:07.231Z,7.85
2023-03-05T18:38:34.894Z,10.80
2023-03-05T18:41:04.048Z,11.30
2023-03-05T18:43:31.817Z,8.35
2023-03-05T18:45:58.998Z,6.03
2023-03-05T18:48:26.319Z,8.55
2023-03-05T18:50:54.529Z,11.07
2023-03-05T18:53:23.842Z,10.65
2023-03-05T18:55:53.261Z,8.13
2023-03-05T18:58:20.359Z,7.85
2023-03-05T19:00:48.755Z,15.23
2023-03-05T19:03:18.287Z,7.50
2023-03-05T19:05:45.371Z,10.45
2023-03-05T19:08:12.976Z,8.68
2023-03-05T19:10:40.020Z,11.00
2023-03-05T19:13:40.444Z,10.98
2023-03-05T19:16:30.287Z,11.52
2023-03-05T19:19:25.289Z,14.57
2023-03-05T19:21:58.494Z,16.20
2023-03-05T19:24:30.622Z,7.88
2023-03-05T19:27:00.935Z,9.95
2023-03-05T19:29:32.696Z,9.50
2023-03-05T19:31:59.958Z,16.60
2023-03-05T19:34:26.903Z,16.10
2023-03-05T19:36:53.802Z,19.35
2023-03-05T19:39:20.721Z,13.32
2023-03-05T19:41:47.661Z,11.43
2023-03-05T19:44:15.795Z,11.90
2023-03-05T19:46:43.422Z,13.65
2023-03-05T19:49:10.790Z,12.45
2023-03-05T19:51:39.694Z,14.52
2023-03-05T19:54:06.593Z,12.68
2023-03-05T19:56:33.603Z,14.48
2023-03-05T19:59:00.469Z,14.50
2023-03-05T20:01:27.870Z,15.68
2023-03-05T20:04:01.735Z,12.32
2023-03-05T20:06:31.718Z,17.33
2023-03-05T20:08:59.941Z,13.32
2023-03-05T20:11:28.416Z,13.20
2023-03-05T20:13:56.710Z,10.10
2023-03-05T20:16:32.694Z,11.73
2023-03-05T20:19:00.004Z,11.82
2023-03-05T20:21:40.497Z,17.58
2023-03-05T20:24:14.540Z,14.52
2023-03-05T20:26:44.568Z,12.85
2023-03-05T20:29:16.940Z,10.00
2023-03-05T20:31:45.071Z,9.40
2023-03-05T20:34:18.122Z,12.70
2023-03-05T20:36:46.367Z,11.48
2023-03-05T20:39:13.664Z,14.05
2023-03-05T20:41:40.805Z,12.98
2023-03-05T20:44:11.138Z,17.83
2023-03-05T20:47:23.654Z,18.55
2023-03-05T20:49:55.827Z,16.73
2023-03-05T20:52:22.748Z,13.25
2023-03-05T20:54:49.688Z,17.70
2023-03-05T20:57:16.839Z,17.67
2023-03-05T20:59:43.763Z,18.02
2023-03-05T21:02:10.972Z,16.10
2023-03-05T21:04:37.904Z,25.17
2023-03-05T21:07:04.800Z,22.35
2023-03-05T21:09:31.635Z,19.45
2023-03-05T21:12:00.795Z,18.33
2023-03-05T21:14:27.654Z,12.80
2023-03-05T21:16:54.636Z,17.63
2023-03-05T21:19:21.553Z,19.40
2023-03-05T21:21:48.555Z,18.45
2023-03-05T21:24:51.848Z,17.85
2023-03-05T21:27:18.727Z,18.27
2023-03-05T21:29:45.612Z,17.77
2023-03-05T21:32:12.667Z,21.38
2023-03-05T21:34:39.515Z,18.30
2023-03-05T21:37:06.372Z,21.70
2023-03-05T21:39:33.207Z,19.33
2023-03-05T21:42:00.079Z,16.70
2023-03-05T21:44:26.922Z,13.57
2023-03-05T21:46:53.826Z,17.08
2023-03-05T21:49:20.707Z,13.90
2023-03-05T21:52:14.335Z,15.60
2023-03-05T21:54:42.832Z,16.20
2023-03-05T21:57:12.021Z,18.02
2023-03-05T21:59:42.385Z,19.10
2023-03-05T22:02:19.970Z,16.50
2023-03-05T22:04:48.036Z,14.10
2023-03-05T22:07:17.925Z,18.50
2023-03-05T22:09:45.969Z,15.00
2023-03-05T22:13:17.792Z,14.48
2023-03-05T22:15:56.700Z,16.10
2023-03-05T22:18:33.501Z,15.07
2023-03-05T22:21:02.120Z,15.95
2023-03-05T22:23:34.393Z,15.27
2023-03-05T22:26:07.582Z,14.95
2023-03-05T22:28:36.378Z,19.77
2023-03-05T22:31:05.431Z,17.73
2023-03-05T22:33:32.775Z,16.05
2023-03-05T22:35:59.959Z,12.32
2023-03-05T22:38:26.914Z,14.95
2023-03-05T22:40:54.759Z,19.83
2023-03-05T22:43:21.685Z,19.75
2023-03-05T22:45:48.890Z,20.25
2023-03-05T22:48:16.395Z,20.05
2023-03-05T22:50:44.202Z,18.35
2023-03-05T22:53:12.512Z,18.05
2023-03-05T22:55:43.080Z,20.80
2023-03-05T22:58:10.252Z,19.25
2023-03-05T23:00:37.697Z,18.90
2023-03-05T23:03:06.270Z,22.25
2023-03-05T23:05:35.236Z,19.08
2023-03-05T23:08:02.194Z,17.63
2023-03-05T23:10:29.551Z,18.50
2023-03-05T23:13:00.294Z,20.67
2023-03-05T23:15:33.507Z,20.30
2023-03-05T23:18:01.774Z,20.00
2023-03-05T23:20:35.606Z,18.27
2023-03-05T23:23:04.459Z,18.77
2023-03-05T23:25:34.608Z,24.83
2023-03-05T23:28:03.376Z,21.75
2023-03-05T23:30:34.659Z,29.30
2023-03-05T23:33:19.364Z,23.52
2023-03-05T23:35:59.638Z,18.50
2023-03-05T23:38:29.940Z,20.40
2023-03-05T23:41:03.524Z,18.02
2023-03-05T23:43:30.812Z,17.70
2023-03-05T23:45:57.860Z,26.60
2023-03-05T23:48:27.445Z,20.95
2023-03-05T23:50:55.350Z,19.45
2023-03-05T23:53:31.055Z,23.25
2023-03-05T23:55:58.047Z,19.17
2023-03-05T23:58:25.387Z,22.23
